Time;durP1;ratioP1;P1;durP2;ratioP2;P2;SDS_P1;SDS_P2;PMS_P1;PMS_P2;Temp;Humidity;BMP_temperature;BMP_pressure;BME280_temperature;BME280_humidity;BME280_pressure;Samples;Min_cycle;Max_cycle;Signal;HPM_P1;HPM_P2
2023/10/18 00:01:05;;;;;;;;;;;20.10;1.00;;;;;;4899948;29;19975;-55
2023/10/18 00:03:32;;;;;;;;;;;20.10;1.00;;;;;;4899674;29;19928;-58
2023/10/18 00:06:08;;;;;;;;;;;20.00;1.00;;;;;;4900115;29;19927;-56
2023/10/18 00:08:34;;;;;;;;;;;20.00;1.00;;;;;;4899894;29;19955;-57
2023/10/18 00:11:01;;;;;;;;;;;19.90;1.00;;;;;;4898449;29;20350;-57
2023/10/18 00:13:30;;;;;;;;;;;19.90;1.00;;;;;;4899547;29;19928;-56
2023/10/18 00:16:06;;;;;;;;;;;19.90;1.00;;;;;;4899694;29;20344;-57
2023/10/18 00:18:33;;;;;;;;;;;19.90;1.00;;;;;;4899530;29;19935;-56
2023/10/18 00:21:00;;;;;;;;;;;19.80;1.00;;;;;;4899423;29;19928;-56
2023/10/18 00:23:27;;;;;;;;;;;19.80;1.00;;;;;;4899491;29;19931;-57
2023/10/18 00:25:54;;;;;;;;;;;19.80;1.00;;;;;;4899547;29;20309;-56
2023/10/18 00:28:21;;;;;;;;;;;19.80;1.00;;;;;;4892562;29;19928;-56
2023/10/18 00:30:50;;;;;;;;;;;19.70;1.00;;;;;;4880691;29;19928;-58
2023/10/18 00:33:18;;;;;;;;;;;19.70;1.00;;;;;;4880674;29;19938;-57
2023/10/18 00:35:47;;;;;;;;;;;19.70;1.00;;;;;;4879263;29;19934;-56
2023/10/18 00:38:18;;;;;;;;;;;19.60;1.00;;;;;;4880664;29;19934;-57
2023/10/18 00:40:45;;;;;;;;;;;19.60;1.00;;;;;;4879251;29;19928;-57
2023/10/18 00:43:22;;;;;;;;;;;19.60;1.00;;;;;;4879137;29;19928;-57
2023/10/18 00:45:50;;;;;;;;;;;19.60;1.00;;;;;;4879144;29;19934;-57
2023/10/18 00:48:22;;;;;;;;;;;19.50;1.00;;;;;;4879124;29;20409;-54
2023/10/18 00:50:52;;;;;;;;;;;19.60;1.00;;;;;;4880287;29;20393;-57
2023/10/18 00:53:25;;;;;;;;;;;19.50;1.00;;;;;;4878828;29;19961;-57
2023/10/18 00:56:04;;;;;;;;;;;19.50;1.00;;;;;;4880250;29;20150;-57
2023/10/18 00:58:32;;;;;;;;;;;19.40;1.00;;;;;;4880192;29;20001;-57
2023/10/18 01:01:08;;;;;;;;;;;19.40;1.00;;;;;;4879099;29;19928;-57
2023/10/18 01:03:38;;;;;;;;;;;19.40;1.00;;;;;;4879998;29;20476;-57
2023/10/18 01:06:08;;;;;;;;;;;19.40;1.00;;;;;;4880179;29;19961;-56
2023/10/18 01:08:38;;;;;;;;;;;19.40;1.00;;;;;;4878860;29;20015;-56
2023/10/18 01:11:10;;;;;;;;;;;19.30;1.00;;;;;;4878639;29;19991;-57
2023/10/18 01:13:40;;;;;;;;;;;19.30;1.00;;;;;;4878527;29;19931;-58
2023/10/18 01:16:53;;;;;;;;;;;19.30;1.00;;;;;;4879951;29;19987;-55
2023/10/18 01:18:55;;;;;;;;;;;19.30;1.00;;;;;;4876001;29;19936;-58
2023/10/18 01:21:22;;;;;;;;;;;19.20;1.00;;;;;;4879971;29;19931;-55
2023/10/18 01:23:53;;;;;;;;;;;19.20;1.00;;;;;;4878315;29;19932;-55
2023/10/18 01:26:24;;;;;;;;;;;19.20;1.00;;;;;;4878535;29;19963;-56
2023/10/18 01:28:51;;;;;;;;;;;19.20;1.00;;;;;;4878663;29;19934;-58
2023/10/18 01:31:19;;;;;;;;;;;19.10;1.00;;;;;;4878483;29;20031;-54
2023/10/18 01:33:47;;;;;;;;;;;19.20;1.00;;;;;;4879347;29;19927;-55
2023/10/18 01:36:15;;;;;;;;;;;19.10;1.00;;;;;;4878224;29;20355;-58
2023/10/18 01:38:44;;;;;;;;;;;19.10;1.00;;;;;;4879003;29;19963;-56
2023/10/18 01:41:25;;;;;;;;;;;19.10;1.00;;;;;;4879414;29;19960;-55
2023/10/18 01:43:55;;;;;;;;;;;19.10;1.00;;;;;;4879352;29;19927;-57
2023/10/18 01:46:23;;;;;;;;;;;19.10;1.00;;;;;;4895570;29;19934;-56
2023/10/18 01:48:55;;;;;;;;;;;19.00;1.00;;;;;;4896495;29;20354;-57
2023/10/18 01:51:21;;;;;;;;;;;19.00;1.00;;;;;;4896696;29;19927;-57
2023/10/18 01:53:50;;;;;;;;;;;19.00;1.00;;;;;;4897926;29;20429;-54
2023/10/18 01:56:20;;;;;;;;;;;19.00;1.00;;;;;;4896541;29;19974;-56
2023/10/18 01:58:47;;;;;;;;;;;18.90;1.00;;;;;;4896692;29;20377;-55
2023/10/18 02:01:16;;;;;;;;;;;18.90;1.00;;;;;;4896540;29;19935;-55
2023/10/18 02:03:50;;;;;;;;;;;18.90;1.00;;;;;;4897396;29;20373;-57
2023/10/18 02:06:17;;;;;;;;;;;18.90;1.00;;;;;;4896583;29;19939;-56
2023/10/18 02:08:44;;;;;;;;;;;18.90;1.00;;;;;;4896484;29;19950;-54
2023/10/18 02:11:11;;;;;;;;;;;18.80;1.00;;;;;;4897657;29;19928;-55
2023/10/18 02:13:41;;;;;;;;;;;18.80;1.00;;;;;;4896027;29;19934;-56
2023/10/18 02:16:14;;;;;;;;;;;18.80;1.00;;;;;;4896525;29;19934;-58
2023/10/18 02:18:41;;;;;;;;;;;18.80;1.00;;;;;;4896222;29;20283;-56
2023/10/18 02:21:08;;;;;;;;;;;18.80;1.00;;;;;;4896220;29;20026;-57
2023/10/18 02:23:35;;;;;;;;;;;18.80;1.00;;;;;;4896124;29;19928;-58
2023/10/18 02:26:09;;;;;;;;;;;18.70;1.00;;;;;;4897321;29;19934;-57
2023/10/18 02:28:36;;;;;;;;;;;18.70;1.00;;;;;;4896189;29;20404;-56
2023/10/18 02:33:45;;;;;;;;;;;18.70;1.00;;;;;;4896033;29;19928;-56
2023/10/18 02:36:12;;;;;;;;;;;18.70;1.00;;;;;;4889446;29;19971;-56
2023/10/18 02:38:40;;;;;;;;;;;18.70;1.00;;;;;;4895951;29;19928;-57
2023/10/18 02:41:49;;;;;;;;;;;18.60;1.00;;;;;;4896083;29;19950;-55
2023/10/18 02:44:00;;;;;;;;;;;18.60;1.00;;;;;;4891011;29;20026;-54
2023/10/18 02:46:26;;;;;;;;;;;18.60;1.00;;;;;;4895986;29;19928;-56
2023/10/18 02:48:54;;;;;;;;;;;18.60;1.00;;;;;;4897149;29;20404;-58
2023/10/18 02:51:22;;;;;;;;;;;18.60;1.00;;;;;;4899318;29;19983;-55
2023/10/18 02:53:51;;;;;;;;;;;18.60;1.00;;;;;;4899836;29;19928;-58
2023/10/18 02:56:20;;;;;;;;;;;18.60;1.00;;;;;;4899892;29;20297;-57
2023/10/18 02:58:47;;;;;;;;;;;18.50;1.00;;;;;;4899757;29;19928;-57
2023/10/18 03:01:14;;;;;;;;;;;18.50;1.00;;;;;;4899657;29;20318;-55
2023/10/18 03:03:46;;;;;;;;;;;18.50;1.00;;;;;;4899536;29;20389;-56
2023/10/18 03:06:13;;;;;;;;;;;18.50;1.00;;;;;;4901245;29;19928;-57
2023/10/18 03:09:00;;;;;;;;;;;18.50;1.00;;;;;;4899883;29;20118;-55
2023/10/18 03:11:27;;;;;;;;;;;18.40;1.00;;;;;;4901080;29;19928;-58
2023/10/18 03:14:01;;;;;;;;;;;18.40;1.00;;;;;;4900445;29;20010;-57
2023/10/18 03:19:09;;;;;;;;;;;18.40;1.00;;;;;;4900541;29;19935;-58
2023/10/18 03:21:37;;;;;;;;;;;18.40;1.00;;;;;;4899545;29;19931;-57
2023/10/18 03:24:04;;;;;;;;;;;18.30;1.00;;;;;;4899125;29;19959;-58
2023/10/18 03:26:37;;;;;;;;;;;18.30;1.00;;;;;;4899429;29;19979;-56
2023/10/18 03:29:15;;;;;;;;;;;18.30;1.00;;;;;;4900651;29;19951;-57
2023/10/18 03:31:47;;;;;;;;;;;18.30;1.00;;;;;;4899296;29;19927;-58
2023/10/18 03:34:18;;;;;;;;;;;18.30;1.00;;;;;;4900533;29;19928;-57
2023/10/18 03:36:49;;;;;;;;;;;18.30;1.00;;;;;;4900446;29;19934;-57
2023/10/18 03:39:16;;;;;;;;;;;18.30;1.00;;;;;;4899000;29;20037;-52
2023/10/18 03:41:49;;;;;;;;;;;18.30;1.00;;;;;;4898902;29;19928;-54
2023/10/18 03:44:21;;;;;;;;;;;18.30;1.00;;;;;;4899259;29;19934;-57
2023/10/18 03:46:48;;;;;;;;;;;18.20;1.00;;;;;;4900270;29;19935;-57
2023/10/18 03:52:03;;;;;;;;;;;18.20;1.00;;;;;;4898840;29;19935;-57
2023/10/18 03:54:43;;;;;;;;;;;18.20;1.00;;;;;;4898881;29;20341;-57
2023/10/18 03:57:16;;;;;;;;;;;18.20;1.00;;;;;;4898762;29;20070;-56
2023/10/18 03:59:45;;;;;;;;;;;18.20;1.00;;;;;;4898569;29;19928;-57
2023/10/18 04:04:57;;;;;;;;;;;18.10;1.00;;;;;;4900374;29;19927;-56
2023/10/18 04:07:26;;;;;;;;;;;18.10;1.00;;;;;;4900114;29;19950;-58
2023/10/18 04:12:27;;;;;;;;;;;18.10;1.00;;;;;;4897371;29;20358;-58
2023/10/18 04:14:58;;;;;;;;;;;18.10;1.00;;;;;;4899490;29;19950;-54
2023/10/18 04:20:22;;;;;;;;;;;18.10;1.00;;;;;;4899415;29;19927;-56
2023/10/18 04:22:50;;;;;;;;;;;18.10;1.00;;;;;;4899371;29;19928;-58
2023/10/18 04:25:25;;;;;;;;;;;18.00;1.00;;;;;;4879674;29;19928;-57
2023/10/18 04:27:59;;;;;;;;;;;18.00;1.00;;;;;;4887839;29;19971;-58
2023/10/18 04:30:29;;;;;;;;;;;18.00;1.00;;;;;;4893109;29;20362;-56
2023/10/18 04:33:00;;;;;;;;;;;17.90;1.00;;;;;;4899191;29;20026;-56
2023/10/18 04:35:36;;;;;;;;;;;17.90;1.00;;;;;;4899435;29;19935;-57
2023/10/18 04:38:08;;;;;;;;;;;17.90;1.00;;;;;;4899271;29;19928;-58
2023/10/18 04:40:34;;;;;;;;;;;17.90;1.00;;;;;;4899238;29;20414;-57
2023/10/18 04:43:01;;;;;;;;;;;17.90;1.00;;;;;;4898956;29;20337;-57
2023/10/18 04:45:29;;;;;;;;;;;17.90;1.00;;;;;;4899161;29;20014;-56
2023/10/18 04:48:06;;;;;;;;;;;17.90;1.00;;;;;;4899136;29;20027;-57
2023/10/18 04:50:33;;;;;;;;;;;17.90;1.00;;;;;;4899269;29;20282;-56
2023/10/18 04:53:00;;;;;;;;;;;17.80;1.00;;;;;;4898011;29;19933;-55
2023/10/18 04:55:27;;;;;;;;;;;17.80;1.00;;;;;;4898236;29;20010;-56
2023/10/18 04:57:54;;;;;;;;;;;17.80;1.00;;;;;;4897397;29;19949;-56
2023/10/18 05:00:25;;;;;;;;;;;17.80;1.00;;;;;;4898383;29;20342;-57
2023/10/18 05:02:52;;;;;;;;;;;17.80;1.00;;;;;;4896436;29;19932;-57
2023/10/18 05:05:19;;;;;;;;;;;17.80;1.00;;;;;;4898768;29;19928;-55
2023/10/18 05:07:48;;;;;;;;;;;17.80;1.00;;;;;;4898932;29;19934;-57
2023/10/18 05:10:19;;;;;;;;;;;17.80;1.00;;;;;;4898726;29;19935;-57
2023/10/18 05:12:53;;;;;;;;;;;17.80;1.00;;;;;;4898035;29;19927;-58
2023/10/18 05:15:31;;;;;;;;;;;17.70;1.00;;;;;;4898610;29;19935;-57
2023/10/18 05:17:59;;;;;;;;;;;17.70;1.00;;;;;;4897432;29;20306;-58
2023/10/18 05:20:41;;;;;;;;;;;17.70;1.00;;;;;;4898418;29;19928;-58
2023/10/18 05:23:08;;;;;;;;;;;17.70;1.00;;;;;;4898807;29;19927;-52
2023/10/18 05:25:38;;;;;;;;;;;17.70;1.00;;;;;;4898724;29;19927;-57
2023/10/18 05:28:24;;;;;;;;;;;17.70;1.00;;;;;;4898344;29;19927;-57
2023/10/18 05:31:26;;;;;;;;;;;17.70;1.00;;;;;;4898710;29;19938;-56
2023/10/18 05:33:55;;;;;;;;;;;17.60;1.00;;;;;;4894256;29;20282;-57
2023/10/18 05:38:48;;;;;;;;;;;17.60;1.00;;;;;;4898137;29;19962;-58
2023/10/18 05:44:01;;;;;;;;;;;17.60;1.00;;;;;;4897916;29;20030;-57
2023/10/18 05:46:31;;;;;;;;;;;17.60;1.00;;;;;;4898184;29;20378;-57
2023/10/18 05:49:00;;;;;;;;;;;17.60;1.00;;;;;;4898059;29;19931;-57
2023/10/18 05:51:32;;;;;;;;;;;17.60;1.00;;;;;;4898061;29;19976;-55
2023/10/18 05:54:05;;;;;;;;;;;17.60;1.00;;;;;;4897643;29;19928;-58
2023/10/18 05:56:32;;;;;;;;;;;17.60;1.00;;;;;;4897887;29;20022;-58
2023/10/18 06:01:46;;;;;;;;;;;17.50;1.00;;;;;;4897550;29;20310;-58
2023/10/18 06:04:14;;;;;;;;;;;17.50;1.00;;;;;;4897865;29;19975;-58
2023/10/18 06:06:43;;;;;;;;;;;17.50;1.00;;;;;;4898406;29;19933;-58
2023/10/18 06:09:26;;;;;;;;;;;17.50;1.00;;;;;;4897586;29;19991;-57
2023/10/18 06:11:54;;;;;;;;;;;17.50;1.00;;;;;;4897511;29;19928;-57
2023/10/18 06:14:39;;;;;;;;;;;17.50;1.00;;;;;;4897678;29;20313;-55
2023/10/18 06:17:08;;;;;;;;;;;17.50;1.00;;;;;;4897857;29;20025;-57
2023/10/18 06:19:36;;;;;;;;;;;17.50;1.00;;;;;;4897145;29;19933;-57
2023/10/18 06:22:15;;;;;;;;;;;17.40;1.00;;;;;;4896589;29;19927;-56
2023/10/18 06:24:45;;;;;;;;;;;17.40;1.00;;;;;;4897292;29;20416;-57
2023/10/18 06:27:15;;;;;;;;;;;17.40;1.00;;;;;;4897053;29;19927;-57
2023/10/18 06:29:43;;;;;;;;;;;17.40;1.00;;;;;;4897289;29;19928;-56
2023/10/18 06:32:13;;;;;;;;;;;17.40;1.00;;;;;;4897042;29;20018;-57
2023/10/18 06:34:46;;;;;;;;;;;17.40;1.00;;;;;;4897431;29;19957;-57
2023/10/18 06:39:58;;;;;;;;;;;17.40;1.00;;;;;;4897210;29;20017;-56
2023/10/18 06:42:28;;;;;;;;;;;17.40;1.00;;;;;;4896891;29;19927;-58
2023/10/18 06:44:56;;;;;;;;;;;17.30;1.00;;;;;;4897297;29;19928;-58
2023/10/18 06:47:43;;;;;;;;;;;17.30;1.00;;;;;;4897247;29;19935;-55
2023/10/18 06:50:26;;;;;;;;;;;17.30;1.00;;;;;;4897096;29;20003;-56
2023/10/18 06:52:53;;;;;;;;;;;17.30;1.00;;;;;;4897592;29;20014;-56
2023/10/18 06:55:30;;;;;;;;;;;17.30;1.00;;;;;;4897002;29;20298;-57
2023/10/18 06:57:57;;;;;;;;;;;17.30;1.00;;;;;;4897378;29;19928;-58
2023/10/18 07:00:30;;;;;;;;;;;17.30;1.00;;;;;;4896856;29;19958;-58
2023/10/18 07:02:57;;;;;;;;;;;17.30;1.00;;;;;;4896968;29;20024;-58
2023/10/18 07:05:24;;;;;;;;;;;17.30;1.00;;;;;;4897027;29;21933;-58
2023/10/18 07:07:52;;;;;;;;;;;17.30;1.00;;;;;;4897100;29;20026;-58
2023/10/18 07:10:52;;;;;;;;;;;17.20;1.00;;;;;;4896834;29;19974;-58
2023/10/18 07:13:08;;;;;;;;;;;17.20;1.00;;;;;;4896805;29;20025;-58
2023/10/18 07:15:35;;;;;;;;;;;17.20;1.00;;;;;;4897132;29;20110;-57
2023/10/18 07:18:09;;;;;;;;;;;17.20;1.00;;;;;;4897161;29;19927;-58
2023/10/18 07:20:36;;;;;;;;;;;17.20;1.00;;;;;;4896811;29;19934;-58
2023/10/18 07:23:03;;;;;;;;;;;17.20;1.00;;;;;;4896822;29;19934;-58
2023/10/18 07:25:32;;;;;;;;;;;17.20;1.00;;;;;;4878142;29;19945;-55
2023/10/18 07:28:01;;;;;;;;;;;17.20;1.00;;;;;;4878293;29;20398;-56
2023/10/18 07:30:37;;;;;;;;;;;17.20;1.00;;;;;;4878111;29;19928;-58
2023/10/18 07:33:09;;;;;;;;;;;17.20;1.00;;;;;;4878052;29;20353;-53
2023/10/18 07:35:44;;;;;;;;;;;17.20;1.00;;;;;;4878184;29;19988;-57
2023/10/18 07:38:11;;;;;;;;;;;17.20;1.00;;;;;;4881270;29;19927;-58
2023/10/18 07:40:43;;;;;;;;;;;17.20;1.00;;;;;;4881469;29;19959;-58
2023/10/18 07:43:14;;;;;;;;;;;17.20;1.00;;;;;;4881493;29;20343;-56
2023/10/18 07:45:46;;;;;;;;;;;17.20;1.00;;;;;;4881526;29;19951;-56
2023/10/18 07:48:16;;;;;;;;;;;17.20;1.00;;;;;;4881899;29;19981;-58
2023/10/18 07:50:45;;;;;;;;;;;17.20;1.00;;;;;;4881489;29;19928;-58
2023/10/18 07:53:11;;;;;;;;;;;17.20;1.00;;;;;;4881149;29;19927;-56
2023/10/18 07:55:41;;;;;;;;;;;17.20;1.00;;;;;;4881359;29;19951;-57
2023/10/18 07:58:18;;;;;;;;;;;17.10;1.00;;;;;;4881611;29;19935;-56
2023/10/18 08:01:46;;;;;;;;;;;17.10;1.00;;;;;;4881136;29;20015;-56
2023/10/18 08:03:36;;;;;;;;;;;17.10;1.00;;;;;;4873726;29;19963;-58
2023/10/18 08:06:45;;;;;;;;;;;17.10;1.00;;;;;;4881151;29;20398;-57
2023/10/18 08:08:53;;;;;;;;;;;17.10;1.00;;;;;;4878716;29;20022;-57
2023/10/18 08:11:23;;;;;;;;;;;17.10;1.00;;;;;;4881129;29;19966;-55
2023/10/18 08:13:52;;;;;;;;;;;17.10;1.00;;;;;;4881046;29;19927;-57
2023/10/18 08:16:19;;;;;;;;;;;17.10;1.00;;;;;;4881226;29;19962;-54
2023/10/18 08:18:52;;;;;;;;;;;17.10;1.00;;;;;;4881337;29;20014;-54
2023/10/18 08:21:37;;;;;;;;;;;17.10;1.00;;;;;;4881113;29;19951;-56
2023/10/18 08:24:08;;;;;;;;;;;17.10;1.00;;;;;;4880954;29;20425;-54
2023/10/18 08:26:47;;;;;;;;;;;17.10;1.00;;;;;;4880828;29;19984;-53
2023/10/18 08:29:15;;;;;;;;;;;17.10;1.00;;;;;;4880821;29;19960;-56
2023/10/18 08:32:04;;;;;;;;;;;17.10;1.00;;;;;;4880884;29;19928;-57
2023/10/18 08:34:31;;;;;;;;;;;17.10;1.00;;;;;;4880875;29;20394;-57
2023/10/18 08:37:01;;;;;;;;;;;17.10;1.00;;;;;;4894438;29;19967;-53
2023/10/18 08:39:28;;;;;;;;;;;17.10;1.00;;;;;;4899364;29;20022;-55
2023/10/18 08:41:58;;;;;;;;;;;17.10;1.00;;;;;;4899369;29;19932;-56
2023/10/18 08:44:25;;;;;;;;;;;17.10;1.00;;;;;;4899574;29;19932;-54
2023/10/18 08:47:03;;;;;;;;;;;17.10;1.00;;;;;;4899427;29;20409;-54
2023/10/18 08:49:34;;;;;;;;;;;17.00;1.00;;;;;;4899450;29;19927;-54
2023/10/18 08:52:06;;;;;;;;;;;17.00;1.00;;;;;;4898967;29;19927;-58
2023/10/18 08:54:33;;;;;;;;;;;17.00;1.00;;;;;;4880980;29;19934;-57
2023/10/18 08:57:06;;;;;;;;;;;17.00;1.00;;;;;;4880475;29;20367;-57
2023/10/18 08:59:43;;;;;;;;;;;17.00;1.00;;;;;;4880348;29;19936;-56
2023/10/18 09:02:23;;;;;;;;;;;17.00;1.00;;;;;;4880211;29;19927;-53
2023/10/18 09:04:59;;;;;;;;;;;17.00;1.00;;;;;;4880346;29;19934;-57
2023/10/18 09:07:44;;;;;;;;;;;17.00;1.00;;;;;;4880384;29;19928;-56
2023/10/18 09:10:33;;;;;;;;;;;17.00;1.00;;;;;;4880095;29;20022;-56
2023/10/18 09:15:46;;;;;;;;;;;17.00;1.00;;;;;;4880055;29;19934;-53
2023/10/18 09:18:26;;;;;;;;;;;17.00;1.00;;;;;;4879970;29;19927;-54
2023/10/18 09:20:56;;;;;;;;;;;17.00;1.00;;;;;;4879982;29;20313;-54
2023/10/18 09:23:29;;;;;;;;;;;17.00;1.00;;;;;;4879566;29;19934;-57
2023/10/18 09:26:10;;;;;;;;;;;17.00;1.00;;;;;;4879667;29;19928;-57
2023/10/18 09:28:39;;;;;;;;;;;17.00;1.00;;;;;;4880482;29;20275;-56
2023/10/18 09:31:12;;;;;;;;;;;17.00;1.00;;;;;;4879487;29;19928;-55
2023/10/18 09:33:48;;;;;;;;;;;17.00;1.00;;;;;;4879458;29;20022;-54
2023/10/18 09:36:19;;;;;;;;;;;16.90;1.00;;;;;;4879564;29;20409;-57
2023/10/18 09:38:48;;;;;;;;;;;16.90;1.00;;;;;;4891056;29;19927;-54
2023/10/18 09:41:15;;;;;;;;;;;16.90;1.00;;;;;;4898194;29;19927;-57
2023/10/18 09:43:42;;;;;;;;;;;16.90;1.00;;;;;;4897694;29;19927;-58
2023/10/18 09:46:10;;;;;;;;;;;16.90;1.00;;;;;;4898115;29;20290;-58
2023/10/18 09:48:41;;;;;;;;;;;16.90;1.00;;;;;;4898057;29;19975;-58
2023/10/18 09:51:09;;;;;;;;;;;16.90;1.00;;;;;;4897820;29;20010;-58
2023/10/18 09:53:43;;;;;;;;;;;16.90;1.00;;;;;;4897581;29;19934;-58
2023/10/18 09:56:14;;;;;;;;;;;16.90;1.00;;;;;;4897773;29;19932;-56
2023/10/18 09:58:42;;;;;;;;;;;16.90;1.00;;;;;;4897735;29;20014;-56
2023/10/18 10:01:24;;;;;;;;;;;16.90;1.00;;;;;;4897152;29;19934;-58
2023/10/18 10:03:58;;;;;;;;;;;16.90;1.00;;;;;;4897586;29;20026;-58
2023/10/18 10:06:26;;;;;;;;;;;16.90;1.00;;;;;;4897476;29;20015;-58
2023/10/18 10:09:13;;;;;;;;;;;16.90;1.00;;;;;;4897566;29;19934;-58
2023/10/18 10:11:44;;;;;;;;;;;16.90;1.00;;;;;;4897479;29;19934;-58
2023/10/18 10:14:15;;;;;;;;;;;16.90;1.00;;;;;;4897544;29;19927;-58
2023/10/18 10:16:45;;;;;;;;;;;16.90;1.00;;;;;;4897633;29;20306;-58
2023/10/18 10:19:13;;;;;;;;;;;16.90;1.00;;;;;;4897451;29;19932;-58
2023/10/18 10:21:41;;;;;;;;;;;16.90;1.00;;;;;;4879284;29;19928;-58
2023/10/18 10:24:29;;;;;;;;;;;16.90;1.00;;;;;;4878723;29;20018;-57
2023/10/18 10:27:27;;;;;;;;;;;16.90;1.00;;;;;;4897435;29;20342;-58
2023/10/18 10:29:58;;;;;;;;;;;16.90;1.00;;;;;;4890702;29;19935;-55
2023/10/18 10:32:27;;;;;;;;;;;16.90;1.00;;;;;;4897182;29;19939;-56
2023/10/18 10:35:11;;;;;;;;;;;16.90;1.00;;;;;;4897284;29;20405;-56
2023/10/18 10:37:46;;;;;;;;;;;16.90;1.00;;;;;;4897221;29;19935;-58
2023/10/18 10:40:35;;;;;;;;;;;16.90;1.00;;;;;;4897322;29;19928;-58
2023/10/18 10:43:04;;;;;;;;;;;16.90;1.00;;;;;;4897159;29;19934;-57
2023/10/18 10:51:16;;;;;;;;;;;16.90;1.00;;;;;;4889760;29;19927;-56
2023/10/18 10:53:48;;;;;;;;;;;16.90;1.00;;;;;;4896938;29;20389;-57
2023/10/18 10:56:18;;;;;;;;;;;16.90;1.00;;;;;;4897245;29;20494;-56
2023/10/18 10:58:47;;;;;;;;;;;16.90;1.00;;;;;;4897046;29;20026;-58
2023/10/18 11:01:14;;;;;;;;;;;16.90;1.00;;;;;;4896622;29;19937;-56
2023/10/18 11:03:53;;;;;;;;;;;16.90;1.00;;;;;;4896940;29;19928;-56
2023/10/18 11:06:24;;;;;;;;;;;16.90;1.00;;;;;;4897128;29;19934;-57
2023/10/18 11:08:51;;;;;;;;;;;16.90;1.00;;;;;;4897061;29;19934;-57
2023/10/18 11:11:21;;;;;;;;;;;16.90;1.00;;;;;;4897293;29;19931;-57
2023/10/18 11:13:48;;;;;;;;;;;16.90;1.00;;;;;;4900721;29;19931;-57
2023/10/18 11:16:16;;;;;;;;;;;16.90;1.00;;;;;;4900837;29;20401;-55
2023/10/18 11:18:48;;;;;;;;;;;16.90;1.00;;;;;;4898553;29;20022;-58
2023/10/18 11:21:24;;;;;;;;;;;16.90;1.00;;;;;;4882034;29;20302;-57
2023/10/18 11:23:51;;;;;;;;;;;16.90;1.00;;;;;;4881849;29;19974;-57
2023/10/18 11:26:23;;;;;;;;;;;16.90;1.00;;;;;;4882063;29;19932;-57
2023/10/18 11:28:55;;;;;;;;;;;16.90;1.00;;;;;;4881832;29;19927;-57
2023/10/18 11:31:29;;;;;;;;;;;16.90;1.00;;;;;;4881907;29;19928;-57
2023/10/18 11:34:05;;;;;;;;;;;16.90;1.00;;;;;;4881718;29;20298;-56
2023/10/18 11:36:33;;;;;;;;;;;16.90;1.00;;;;;;4881713;29;19950;-58
2023/10/18 11:39:34;;;;;;;;;;;16.90;1.00;;;;;;4893442;29;19927;-56
2023/10/18 11:41:53;;;;;;;;;;;16.90;1.00;;;;;;4899057;29;19927;-58
2023/10/18 11:44:27;;;;;;;;;;;16.90;1.00;;;;;;4900693;29;19934;-57
2023/10/18 11:47:00;;;;;;;;;;;16.90;1.00;;;;;;4900211;29;19931;-56
2023/10/18 11:49:35;;;;;;;;;;;16.90;1.00;;;;;;4900138;29;19979;-55
2023/10/18 11:52:03;;;;;;;;;;;16.90;1.00;;;;;;4899810;29;20018;-56
2023/10/18 11:54:31;;;;;;;;;;;16.90;1.00;;;;;;4899960;29;20010;-56
2023/10/18 11:56:59;;;;;;;;;;;16.90;1.00;;;;;;4899966;29;19935;-57
2023/10/18 11:59:28;;;;;;;;;;;16.90;1.00;;;;;;4900073;29;20382;-56
2023/10/18 12:01:55;;;;;;;;;;;16.90;1.00;;;;;;4899762;29;20596;-56
2023/10/18 12:04:27;;;;;;;;;;;16.90;1.00;;;;;;4900106;29;19927;-58
2023/10/18 12:06:58;;;;;;;;;;;16.90;1.00;;;;;;4899797;29;19927;-57
2023/10/18 12:09:25;;;;;;;;;;;16.90;1.00;;;;;;4899624;29;19933;-57
2023/10/18 12:11:52;;;;;;;;;;;16.90;1.00;;;;;;4899457;29;19927;-57
2023/10/18 12:14:22;;;;;;;;;;;16.90;1.00;;;;;;4899858;29;19927;-58
2023/10/18 12:16:50;;;;;;;;;;;16.90;1.00;;;;;;4899577;29;19950;-57
2023/10/18 12:19:18;;;;;;;;;;;16.90;1.00;;;;;;4899535;29;19934;-58
2023/10/18 12:21:48;;;;;;;;;;;16.90;1.00;;;;;;4899404;29;19927;-58
2023/10/18 12:24:18;;;;;;;;;;;16.90;1.00;;;;;;4898739;29;21179;-58
2023/10/18 12:26:45;;;;;;;;;;;16.90;1.00;;;;;;4899329;29;20384;-58
2023/10/18 12:29:16;;;;;;;;;;;16.90;1.00;;;;;;4899426;29;20022;-56
2023/10/18 12:31:52;;;;;;;;;;;16.90;1.00;;;;;;4899383;29;20352;-58
2023/10/18 12:34:21;;;;;;;;;;;16.90;1.00;;;;;;4899318;29;19983;-58
2023/10/18 12:36:53;;;;;;;;;;;16.90;1.00;;;;;;4899184;29;19963;-56
2023/10/18 12:39:25;;;;;;;;;;;16.90;1.00;;;;;;4899354;29;19931;-58
2023/10/18 12:41:57;;;;;;;;;;;16.90;1.00;;;;;;4899002;29;19966;-58
2023/10/18 12:44:29;;;;;;;;;;;16.90;1.00;;;;;;4899258;29;19967;-58
2023/10/18 12:46:56;;;;;;;;;;;16.90;1.00;;;;;;4899161;29;19931;-58
2023/10/18 12:49:22;;;;;;;;;;;16.90;1.00;;;;;;4899276;29;20033;-58
2023/10/18 12:52:00;;;;;;;;;;;16.90;1.00;;;;;;4881386;29;19959;-58
2023/10/18 12:54:36;;;;;;;;;;;16.90;1.00;;;;;;4894941;29;20434;-58
2023/10/18 12:57:14;;;;;;;;;;;16.90;1.00;;;;;;4899279;29;19950;-58
2023/10/18 13:00:42;;;;;;;;;;;16.90;1.00;;;;;;4898944;29;19937;-57
2023/10/18 13:03:43;;;;;;;;;;;16.90;1.00;;;;;;4870464;29;19927;-58
2023/10/18 13:05:40;;;;;;;;;;;16.90;1.00;;;;;;4871763;29;20291;-58
2023/10/18 13:13:31;;;;;;;;;;;16.90;1.00;;;;;;4898583;29;19927;-57
2023/10/18 13:15:58;;;;;;;;;;;16.90;1.00;;;;;;4897300;29;20436;-57
2023/10/18 13:18:28;;;;;;;;;;;16.90;1.00;;;;;;4898757;29;19931;-56
2023/10/18 13:20:55;;;;;;;;;;;16.90;1.00;;;;;;4898524;29;20100;-56
2023/10/18 13:23:27;;;;;;;;;;;16.90;1.00;;;;;;4898474;29;19927;-58
2023/10/18 13:25:54;;;;;;;;;;;16.90;1.00;;;;;;4898841;29;20374;-57
2023/10/18 13:28:47;;;;;;;;;;;16.90;1.00;;;;;;4898584;29;19927;-58
2023/10/18 13:31:23;;;;;;;;;;;16.90;1.00;;;;;;4898305;29;19927;-57
2023/10/18 13:33:53;;;;;;;;;;;16.90;1.00;;;;;;4897838;29;20006;-58
2023/10/18 13:36:21;;;;;;;;;;;16.90;1.00;;;;;;4898128;29;19928;-57
2023/10/18 13:38:49;;;;;;;;;;;16.90;1.00;;;;;;4898290;29;19932;-58
2023/10/18 13:41:17;;;;;;;;;;;16.90;1.00;;;;;;4897892;29;19936;-57
2023/10/18 13:43:44;;;;;;;;;;;16.90;1.00;;;;;;4898157;29;20018;-58
2023/10/18 13:46:19;;;;;;;;;;;16.90;1.00;;;;;;4898116;29;19928;-57
2023/10/18 13:48:46;;;;;;;;;;;16.90;1.00;;;;;;4898008;29;19932;-57
2023/10/18 13:51:13;;;;;;;;;;;16.90;1.00;;;;;;4897943;29;19928;-58
2023/10/18 13:53:41;;;;;;;;;;;16.90;1.00;;;;;;4895640;29;20330;-57
2023/10/18 13:56:12;;;;;;;;;;;16.90;1.00;;;;;;4893435;29;20406;-56
2023/10/18 13:58:40;;;;;;;;;;;16.90;1.00;;;;;;4896114;29;19931;-56
2023/10/18 14:01:18;;;;;;;;;;;16.90;1.00;;;;;;4892933;29;19928;-57
2023/10/18 14:03:49;;;;;;;;;;;16.90;1.00;;;;;;4893044;29;20425;-57
2023/10/18 14:06:16;;;;;;;;;;;17.00;1.00;;;;;;4898656;29;19932;-56
2023/10/18 14:08:44;;;;;;;;;;;16.90;1.00;;;;;;4897704;29;20309;-55
2023/10/18 14:11:13;;;;;;;;;;;16.90;1.00;;;;;;4897583;29;20386;-56
2023/10/18 14:13:41;;;;;;;;;;;16.90;1.00;;;;;;4897544;29;20054;-57
2023/10/18 14:16:12;;;;;;;;;;;16.90;1.00;;;;;;4897580;29;19934;-56
2023/10/18 14:18:40;;;;;;;;;;;16.90;1.00;;;;;;4897641;29;19928;-58
2023/10/18 14:21:12;;;;;;;;;;;16.90;1.00;;;;;;4897357;29;19983;-56
2023/10/18 14:23:43;;;;;;;;;;;16.90;1.00;;;;;;4897641;29;19933;-58
2023/10/18 14:26:10;;;;;;;;;;;16.90;1.00;;;;;;4897520;29;19927;-58
2023/10/18 14:28:37;;;;;;;;;;;16.90;1.00;;;;;;4897422;29;19928;-58
2023/10/18 14:31:08;;;;;;;;;;;16.90;1.00;;;;;;4894487;29;19981;-56
2023/10/18 14:33:34;;;;;;;;;;;16.90;1.00;;;;;;4893532;29;19966;-57
2023/10/18 14:36:07;;;;;;;;;;;16.90;1.00;;;;;;4896931;29;19959;-55
2023/10/18 14:38:34;;;;;;;;;;;16.90;1.00;;;;;;4894107;29;20018;-56
2023/10/18 14:41:08;;;;;;;;;;;16.90;1.00;;;;;;4896348;29;19934;-58
2023/10/18 14:43:54;;;;;;;;;;;16.90;1.00;;;;;;4897153;29;19928;-58
2023/10/18 14:46:23;;;;;;;;;;;16.90;1.00;;;;;;4897221;29;20329;-53
2023/10/18 14:48:50;;;;;;;;;;;16.90;1.00;;;;;;4897096;29;19938;-56
2023/10/18 14:51:24;;;;;;;;;;;16.90;1.00;;;;;;4896922;29;19934;-57
2023/10/18 14:53:52;;;;;;;;;;;16.90;1.00;;;;;;4896911;29;20048;-57
2023/10/18 14:56:20;;;;;;;;;;;17.00;1.00;;;;;;4897384;29;19931;-58
2023/10/18 14:58:47;;;;;;;;;;;16.90;1.00;;;;;;4897079;29;20290;-55
2023/10/18 15:01:15;;;;;;;;;;;16.90;1.00;;;;;;4897203;29;20301;-57
2023/10/18 15:03:43;;;;;;;;;;;16.90;1.00;;;;;;4897060;29;19983;-57
2023/10/18 15:06:10;;;;;;;;;;;16.90;1.00;;;;;;4894176;29;19934;-57
2023/10/18 15:08:36;;;;;;;;;;;16.90;1.00;;;;;;4878538;29;19932;-58
2023/10/18 15:11:10;;;;;;;;;;;16.90;1.00;;;;;;4878347;29;20476;-57
2023/10/18 15:13:37;;;;;;;;;;;16.90;1.00;;;;;;4878162;29;20280;-58
2023/10/18 15:16:05;;;;;;;;;;;16.90;1.00;;;;;;4878450;29;19955;-58
2023/10/18 15:18:33;;;;;;;;;;;16.90;1.00;;;;;;4878442;29;19934;-58
2023/10/18 15:21:00;;;;;;;;;;;16.90;1.00;;;;;;4878189;29;19997;-57
2023/10/18 15:23:28;;;;;;;;;;;16.90;1.00;;;;;;4878201;29;19932;-57
2023/10/18 15:26:04;;;;;;;;;;;16.90;1.00;;;;;;4878771;29;19961;-58
2023/10/18 15:28:31;;;;;;;;;;;16.90;1.00;;;;;;4878429;29;19935;-58
2023/10/18 15:31:11;;;;;;;;;;;16.90;1.00;;;;;;4890835;29;19927;-58
2023/10/18 15:33:40;;;;;;;;;;;16.90;1.00;;;;;;4893362;29;19950;-57
2023/10/18 15:36:17;;;;;;;;;;;16.90;1.00;;;;;;4894633;29;19978;-58